Langdale, Alabama
Current Conditions -  °F | °C
As of 4:35 AM on Thursday 18 Dec 2014 (Local Time) from KLGC Reporting Station
Clear Clear  
Wind Chill: 38°   Ceiling: Unl
Heat Index: 38°   Visibility: 10mi
Dew Point: 37°   Wind: 0mph
Humidity: 94%   Direction: NA
Pressure: 30.15"   Gusts: NA
Location:  32.7858°N, 85.1946°W
Report Text: KLGC 181035Z AUTO 00000KT 10SM CLR 04/03 A3015 RMK AO2 T00350026
Loading
Personal Weather Stations






























Interactive Weather Map New forecast layout! Learn more

10-Day Weather Forecast

Advertisements
Track Severe Weather on mobile